createdAt,value
2019-04-16T00:00:23.034Z,57.80
2019-04-16T00:02:54.152Z,57.90
2019-04-16T00:05:36.832Z,57.80
2019-04-16T00:08:19.354Z,58.80
2019-04-16T00:10:39.487Z,59.20
2019-04-16T00:13:15.892Z,59.80
2019-04-16T00:15:44.812Z,60.40
2019-04-16T00:18:18.363Z,61.20
2019-04-16T00:20:55.084Z,62.20
2019-04-16T00:23:41.836Z,62.70
2019-04-16T00:26:10.685Z,63.80
2019-04-16T00:28:39.476Z,64.60
2019-04-16T00:31:08.520Z,65.20
2019-04-16T00:33:39.369Z,65.50
2019-04-16T00:36:07.722Z,65.90
2019-04-16T00:38:41.007Z,66.50
2019-04-16T00:41:07.014Z,67.30
2019-04-16T00:43:37.739Z,68.10
2019-04-16T00:46:08.487Z,68.50
2019-04-16T00:48:37.162Z,69.00
2019-04-16T00:51:05.872Z,69.30
2019-04-16T00:53:36.400Z,70.70
2019-04-16T00:56:05.277Z,70.10
2019-04-16T00:58:34.036Z,69.80
2019-04-16T01:01:02.847Z,70.00
2019-04-16T01:03:31.718Z,69.90
2019-04-16T01:06:00.608Z,70.30
2019-04-16T01:08:29.416Z,71.00
2019-04-16T01:10:58.566Z,71.00
2019-04-16T01:13:27.332Z,71.20
2019-04-16T01:15:56.149Z,71.40
2019-04-16T01:18:25.042Z,71.80
2019-04-16T01:20:53.812Z,72.10
2019-04-16T01:23:22.643Z,72.10
2019-04-16T01:25:55.374Z,71.90
2019-04-16T01:28:32.786Z,72.10
2019-04-16T01:31:15.094Z,72.60
2019-04-16T01:33:50.010Z,72.50
2019-04-16T01:36:31.898Z,72.40
2019-04-16T01:39:16.011Z,72.30
2019-04-16T01:41:32.532Z,72.30
2019-04-16T01:44:01.199Z,72.40
2019-04-16T01:46:32.518Z,72.60
2019-04-16T01:49:00.433Z,72.70
2019-04-16T01:51:29.336Z,72.80
2019-04-16T01:53:58.048Z,72.80
2019-04-16T01:56:28.810Z,73.10
2019-04-16T01:58:57.280Z,73.10
2019-04-16T02:01:25.993Z,73.10
2019-04-16T02:03:54.718Z,73.10
2019-04-16T02:06:25.847Z,73.30
2019-04-16T02:08:53.531Z,73.80
2019-04-16T02:11:22.225Z,74.40
2019-04-16T02:13:50.940Z,74.70
2019-04-16T02:16:19.655Z,74.90
2019-04-16T02:18:48.431Z,75.00
2019-04-16T02:21:17.174Z,75.20
2019-04-16T02:23:48.055Z,75.40
2019-04-16T02:26:16.233Z,75.60
2019-04-16T02:28:44.872Z,76.10
2019-04-16T02:31:16.126Z,76.70
2019-04-16T02:33:44.153Z,77.10
2019-04-16T02:36:13.025Z,77.60
2019-04-16T02:38:46.476Z,78.00
2019-04-16T02:41:16.755Z,77.80
2019-04-16T02:43:45.566Z,78.00
2019-04-16T02:46:14.421Z,78.10
2019-04-16T02:48:50.022Z,78.60
2019-04-16T02:51:24.285Z,78.60
2019-04-16T02:54:03.744Z,79.00
2019-04-16T02:56:51.994Z,79.30
2019-04-16T02:59:28.849Z,80.60
2019-04-16T03:02:02.219Z,81.20
2019-04-16T03:04:32.525Z,81.40
2019-04-16T03:07:03.232Z,82.10
2019-04-16T03:09:31.719Z,82.80
2019-04-16T03:12:00.524Z,82.60
2019-04-16T03:14:30.659Z,83.00
2019-04-16T03:17:11.462Z,83.10
2019-04-16T03:19:42.752Z,83.50
2019-04-16T03:22:11.445Z,83.70
2019-04-16T03:24:41.009Z,84.00
2019-04-16T03:27:10.079Z,84.20
2019-04-16T03:29:38.875Z,84.20
2019-04-16T03:32:12.463Z,85.30
2019-04-16T03:34:37.947Z,84.70
2019-04-16T03:37:06.735Z,84.60
2019-04-16T03:39:35.533Z,84.60
2019-04-16T03:42:04.276Z,85.10
2019-04-16T03:44:33.519Z,85.60
2019-04-16T03:47:04.018Z,85.50
2019-04-16T03:49:32.961Z,85.20
2019-04-16T03:52:04.847Z,85.30
2019-04-16T03:54:31.990Z,85.60
2019-04-16T03:57:02.079Z,85.60
2019-04-16T03:59:31.346Z,85.70
2019-04-16T04:02:00.133Z,85.80
2019-04-16T04:04:29.209Z,85.80
2019-04-16T04:07:08.998Z,85.80
2019-04-16T04:12:14.864Z,85.90
2019-04-16T04:14:43.446Z,85.60
2019-04-16T04:17:12.388Z,84.60
2019-04-16T04:19:43.520Z,83.30
2019-04-16T04:22:11.529Z,79.30
2019-04-16T04:24:40.317Z,73.90
2019-04-16T04:27:13.083Z,71.10
2019-04-16T04:29:39.587Z,66.40
2019-04-16T04:32:08.259Z,60.40
2019-04-16T04:34:37.109Z,55.40
2019-04-16T04:37:05.745Z,53.30
2019-04-16T04:39:34.843Z,49.90
2019-04-16T04:42:03.850Z,47.60
2019-04-16T04:44:33.612Z,45.80
2019-04-16T04:47:03.159Z,44.00
2019-04-16T04:49:31.939Z,41.50
2019-04-16T04:52:00.795Z,39.50
2019-04-16T04:54:29.658Z,37.50
2019-04-16T04:56:59.338Z,36.40
2019-04-16T04:59:29.037Z,34.40
2019-04-16T05:01:57.862Z,33.40
2019-04-16T05:04:28.190Z,32.80
2019-04-16T05:06:58.957Z,31.90
2019-04-16T05:09:35.190Z,31.40
2019-04-16T05:12:02.444Z,31.60
2019-04-16T05:14:31.089Z,31.30
2019-04-16T05:16:59.899Z,30.80
2019-04-16T05:19:28.803Z,30.50
2019-04-16T05:21:58.258Z,30.80
2019-04-16T05:27:42.657Z,30.20
2019-04-16T05:30:11.760Z,28.70
2019-04-16T05:32:40.643Z,30.80
2019-04-16T05:35:10.794Z,31.40
2019-04-16T05:37:40.065Z,30.20
2019-04-16T05:40:10.147Z,29.70
2019-04-16T05:42:38.725Z,29.10
2019-04-16T05:45:09.328Z,28.00
2019-04-16T05:47:38.182Z,27.30
2019-04-16T05:50:07.155Z,27.90
2019-04-16T05:52:36.701Z,27.50
2019-04-16T05:55:16.845Z,28.60
2019-04-16T05:57:46.380Z,28.20
2019-04-16T06:00:19.397Z,28.70
2019-04-16T06:02:50.521Z,29.00
2019-04-16T06:05:18.717Z,28.60
2019-04-16T06:07:47.375Z,28.70
2019-04-16T06:10:18.073Z,28.80
2019-04-16T06:12:48.383Z,29.40
2019-04-16T06:15:22.247Z,29.20
2019-04-16T06:18:06.732Z,28.80
2019-04-16T06:20:43.057Z,28.50
2019-04-16T06:23:13.456Z,28.50
2019-04-16T06:25:49.372Z,29.10
2019-04-16T06:28:36.341Z,29.30
2019-04-16T06:31:10.040Z,29.50
2019-04-16T06:33:38.785Z,28.90
2019-04-16T06:36:14.563Z,28.50
2019-04-16T06:38:47.726Z,29.40
2019-04-16T06:41:19.610Z,29.20
2019-04-16T06:43:59.636Z,29.10
2019-04-16T06:46:46.530Z,28.50
2019-04-16T06:49:20.294Z,27.80
2019-04-16T06:51:53.451Z,27.90
2019-04-16T06:54:25.589Z,28.30
2019-04-16T06:57:09.612Z,28.10
2019-04-16T06:59:43.040Z,27.60
2019-04-16T07:02:20.003Z,28.20
2019-04-16T07:04:50.488Z,26.90
2019-04-16T07:07:39.717Z,27.40
2019-04-16T07:10:04.341Z,28.40
2019-04-16T07:12:37.968Z,28.20
2019-04-16T07:15:04.957Z,28.30
2019-04-16T07:17:34.526Z,26.90
2019-04-16T07:20:06.792Z,27.30
2019-04-16T07:22:35.534Z,27.60
2019-04-16T07:25:06.516Z,27.30
2019-04-16T07:30:28.227Z,26.80
2019-04-16T07:33:00.745Z,27.00
2019-04-16T07:35:33.518Z,26.90
2019-04-16T07:38:22.397Z,26.30
2019-04-16T07:40:55.832Z,26.60
2019-04-16T07:43:42.617Z,26.20
2019-04-16T07:46:30.366Z,27.60
2019-04-16T07:49:12.929Z,27.10
2019-04-16T07:51:59.631Z,27.70
2019-04-16T07:54:48.231Z,29.10
2019-04-16T07:57:16.963Z,28.80
2019-04-16T07:59:45.620Z,28.30
2019-04-16T08:02:14.452Z,26.90
2019-04-16T08:04:43.136Z,27.90
2019-04-16T08:07:13.867Z,28.00
2019-04-16T08:09:42.572Z,27.40
2019-04-16T08:12:28.702Z,26.90
2019-04-16T08:14:41.650Z,26.20
2019-04-16T08:17:10.370Z,25.50
2019-04-16T08:19:39.132Z,25.40
2019-04-16T08:22:07.718Z,25.80
2019-04-16T08:24:38.086Z,25.50
2019-04-16T08:27:09.544Z,25.70
2019-04-16T08:29:36.995Z,25.60
2019-04-16T08:32:05.922Z,25.60
2019-04-16T08:34:34.683Z,26.40
2019-04-16T08:37:03.435Z,26.00
2019-04-16T08:39:32.101Z,25.00
2019-04-16T08:42:00.812Z,26.00
2019-04-16T08:44:29.637Z,26.40
2019-04-16T08:46:59.123Z,25.80
2019-04-16T08:49:28.504Z,26.00
2019-04-16T08:51:57.275Z,25.80
2019-04-16T08:54:26.026Z,26.40
2019-04-16T08:56:54.645Z,27.00
2019-04-16T08:59:23.525Z,25.80
2019-04-16T09:01:54.384Z,26.40
2019-04-16T09:04:24.330Z,25.80
2019-04-16T09:06:53.126Z,25.50
2019-04-16T09:09:24.719Z,25.50
2019-04-16T09:11:55.708Z,25.80
2019-04-16T09:14:26.148Z,25.60
2019-04-16T09:17:02.542Z,24.90
2019-04-16T09:19:31.138Z,25.90
2019-04-16T09:21:59.860Z,25.60
2019-04-16T09:24:40.178Z,25.80
2019-04-16T09:27:21.198Z,25.40
2019-04-16T09:29:54.497Z,25.50
2019-04-16T09:32:42.675Z,25.50
2019-04-16T09:35:18.405Z,25.50
2019-04-16T09:37:47.856Z,26.70
2019-04-16T09:40:30.112Z,25.70
2019-04-16T09:43:15.730Z,26.30
2019-04-16T09:45:33.902Z,27.30
2019-04-16T09:48:03.822Z,26.70
2019-04-16T09:50:32.632Z,27.30
2019-04-16T09:53:02.070Z,28.00
2019-04-16T09:55:30.997Z,28.20
2019-04-16T09:58:06.050Z,28.00
2019-04-16T10:00:39.467Z,28.50
2019-04-16T10:03:09.884Z,28.30
2019-04-16T10:05:38.535Z,28.70
2019-04-16T10:08:09.524Z,28.90
2019-04-16T10:10:37.632Z,28.80
2019-04-16T10:13:06.299Z,28.60
2019-04-16T10:15:35.042Z,28.90
2019-04-16T10:18:03.766Z,28.70
2019-04-16T10:20:32.556Z,29.30
2019-04-16T10:23:02.898Z,29.20
2019-04-16T10:25:33.578Z,29.00
2019-04-16T10:28:04.923Z,28.70
2019-04-16T10:30:38.759Z,28.90
2019-04-16T10:33:07.601Z,28.70
2019-04-16T10:35:36.440Z,28.90
2019-04-16T10:38:06.835Z,28.60
2019-04-16T10:40:37.213Z,28.00
2019-04-16T10:43:20.075Z,28.30
2019-04-16T10:45:53.580Z,29.30
2019-04-16T10:48:35.921Z,28.50
2019-04-16T10:51:09.350Z,29.30
2019-04-16T10:53:42.399Z,29.10
2019-04-16T10:56:20.716Z,29.10
2019-04-16T10:59:02.660Z,29.50
2019-04-16T11:01:35.158Z,28.40
2019-04-16T11:04:16.805Z,29.30
2019-04-16T11:06:49.955Z,29.50
2019-04-16T11:09:19.013Z,29.30
2019-04-16T11:11:47.887Z,29.60
2019-04-16T11:14:16.677Z,29.20
2019-04-16T11:16:47.165Z,29.00
2019-04-16T11:19:16.028Z,29.60
2019-04-16T11:21:44.768Z,29.50
2019-04-16T11:24:13.806Z,30.20
2019-04-16T11:26:44.379Z,30.50
2019-04-16T11:29:13.171Z,30.70
2019-04-16T11:31:41.984Z,31.10
2019-04-16T11:34:11.709Z,31.30
2019-04-16T11:36:41.946Z,31.50
2019-04-16T11:39:11.128Z,31.60
2019-04-16T11:41:42.293Z,32.30
2019-04-16T11:44:15.643Z,31.70
2019-04-16T11:46:41.439Z,30.80
2019-04-16T11:49:10.243Z,30.70
2019-04-16T11:51:39.124Z,30.70
2019-04-16T11:54:11.216Z,31.00
2019-04-16T11:56:38.304Z,30.80
2019-04-16T11:59:07.112Z,30.90
2019-04-16T12:01:37.583Z,31.60
2019-04-16T12:04:14.561Z,32.10
2019-04-16T12:06:51.677Z,32.30
2019-04-16T12:09:31.352Z,32.30
2019-04-16T12:12:04.672Z,32.70
2019-04-16T12:14:35.164Z,33.80
2019-04-16T12:17:06.107Z,34.80
2019-04-16T12:19:49.154Z,35.60
2019-04-16T12:22:19.620Z,36.30
2019-04-16T12:24:49.971Z,37.00
2019-04-16T12:27:20.551Z,36.80
2019-04-16T12:29:50.857Z,36.80
2019-04-16T12:32:26.837Z,37.20
2019-04-16T12:35:10.933Z,38.40
2019-04-16T12:37:57.755Z,39.70
2019-04-16T12:40:30.503Z,39.70
2019-04-16T12:43:14.683Z,40.20
2019-04-16T12:45:53.771Z,40.20
2019-04-16T12:48:27.225Z,40.50
2019-04-16T12:51:06.641Z,40.50
2019-04-16T12:53:37.042Z,41.00
2019-04-16T12:56:13.209Z,41.70
2019-04-16T12:58:50.685Z,42.20
2019-04-16T13:01:36.488Z,42.80
2019-04-16T13:04:23.596Z,43.80
2019-04-16T13:06:59.939Z,43.80
2019-04-16T13:09:33.294Z,44.30
2019-04-16T13:12:12.790Z,45.20
2019-04-16T13:15:01.115Z,45.70
2019-04-16T13:17:39.242Z,46.00
2019-04-16T13:20:15.905Z,46.30
2019-04-16T13:22:49.225Z,47.20
2019-04-16T13:25:19.700Z,48.10
2019-04-16T13:27:50.860Z,48.60
2019-04-16T13:30:20.015Z,50.40
2019-04-16T13:32:49.098Z,52.50
2019-04-16T13:35:18.056Z,54.50
2019-04-16T13:37:46.760Z,55.90
2019-04-16T13:40:17.797Z,58.80
2019-04-16T13:42:46.648Z,61.10
2019-04-16T13:45:27.027Z,66.70
2019-04-16T13:47:55.612Z,72.10
2019-04-16T13:50:28.539Z,73.70
2019-04-16T13:53:04.900Z,76.00
2019-04-16T13:55:49.460Z,76.10
2019-04-16T13:58:34.495Z,77.20
2019-04-16T14:01:14.034Z,78.00
2019-04-16T14:03:42.977Z,80.60
2019-04-16T14:06:11.919Z,82.90
2019-04-16T14:08:40.636Z,83.40
2019-04-16T14:11:09.624Z,84.20
2019-04-16T14:13:38.516Z,85.50
2019-04-16T14:16:12.705Z,86.90
2019-04-16T14:18:40.186Z,88.80
2019-04-16T14:21:09.153Z,90.20
2019-04-16T14:23:39.324Z,90.00
2019-04-16T14:26:08.303Z,89.80
2019-04-16T14:28:51.174Z,91.70
2019-04-16T14:31:07.827Z,91.80
2019-04-16T14:33:43.963Z,92.40
2019-04-16T14:36:13.555Z,93.30
2019-04-16T14:38:52.822Z,93.40
2019-04-16T14:41:21.565Z,93.50
2019-04-16T14:44:08.164Z,93.70
2019-04-16T14:46:37.056Z,94.00
2019-04-16T14:49:05.870Z,94.30
2019-04-16T14:51:34.648Z,94.90
2019-04-16T14:54:07.953Z,95.60
2019-04-16T14:56:38.313Z,95.20
2019-04-16T14:59:08.698Z,95.40
2019-04-16T15:01:38.981Z,95.70
2019-04-16T15:04:17.957Z,96.10
2019-04-16T15:06:52.799Z,96.20
2019-04-16T15:09:29.168Z,96.90
2019-04-16T15:12:08.707Z,95.80
2019-04-16T15:14:48.699Z,96.40
2019-04-16T15:17:22.026Z,96.40
2019-04-16T15:20:09.096Z,96.90
2019-04-16T15:22:42.422Z,96.70
2019-04-16T15:25:15.293Z,96.80
2019-04-16T15:27:59.438Z,96.90
2019-04-16T15:30:46.150Z,97.00
2019-04-16T15:33:35.788Z,96.80
2019-04-16T15:36:04.976Z,97.10
2019-04-16T15:38:44.449Z,97.30
2019-04-16T15:41:17.483Z,96.90
2019-04-16T15:44:04.966Z,96.90
2019-04-16T15:46:51.481Z,96.70
2019-04-16T15:49:39.986Z,96.20
2019-04-16T15:52:13.077Z,96.20
2019-04-16T15:54:49.310Z,95.90
2019-04-16T15:57:31.866Z,96.00
2019-04-16T16:00:08.331Z,96.00
2019-04-16T16:02:39.082Z,95.60
2019-04-16T16:05:09.864Z,95.50
2019-04-16T16:07:40.261Z,95.70
2019-04-16T16:10:17.982Z,95.80
2019-04-16T16:12:50.820Z,96.20
2019-04-16T16:15:19.294Z,96.10
2019-04-16T16:17:48.232Z,95.70
2019-04-16T16:20:17.079Z,96.20
2019-04-16T16:22:45.855Z,96.60
2019-04-16T16:25:14.706Z,96.50
2019-04-16T16:27:46.949Z,96.60
2019-04-16T16:30:18.699Z,97.20
2019-04-16T16:32:47.457Z,97.00
2019-04-16T16:35:17.742Z,97.10
2019-04-16T16:37:46.796Z,97.10
2019-04-16T16:40:16.159Z,96.90
2019-04-16T16:43:10.171Z,97.00
2019-04-16T16:45:44.684Z,97.00
2019-04-16T16:48:23.202Z,97.40
2019-04-16T16:50:53.022Z,97.30
2019-04-16T16:53:23.736Z,97.40
2019-04-16T16:55:53.058Z,97.50
2019-04-16T16:58:26.348Z,97.40
2019-04-16T17:01:14.047Z,98.00
2019-04-16T17:03:53.874Z,98.00
2019-04-16T17:06:24.420Z,97.70
2019-04-16T17:08:53.233Z,97.90
2019-04-16T17:11:22.228Z,98.00
2019-04-16T17:13:51.183Z,98.10
2019-04-16T17:16:26.359Z,98.10
2019-04-16T17:18:55.210Z,98.20
2019-04-16T17:21:24.098Z,98.10
2019-04-16T17:23:53.053Z,98.00
2019-04-16T17:26:21.874Z,98.00
2019-04-16T17:28:50.509Z,98.10
2019-04-16T17:31:19.320Z,97.80
2019-04-16T17:33:48.172Z,97.90
2019-04-16T17:36:16.931Z,97.80
2019-04-16T17:38:45.760Z,98.00
2019-04-16T17:41:16.210Z,97.90
2019-04-16T17:44:04.016Z,98.20
2019-04-16T17:46:34.663Z,98.20
2019-04-16T17:49:05.178Z,98.40
2019-04-16T17:51:38.385Z,98.30
2019-04-16T17:54:08.891Z,98.70
2019-04-16T17:56:39.328Z,98.50
2019-04-16T17:59:15.652Z,98.80
2019-04-16T18:01:54.620Z,98.60
2019-04-16T18:04:28.089Z,98.90
2019-04-16T18:06:58.566Z,98.60
2019-04-16T18:09:28.949Z,98.60
2019-04-16T18:12:16.920Z,99.00
2019-04-16T18:15:08.864Z,98.90
2019-04-16T18:17:46.874Z,98.90
2019-04-16T18:20:27.190Z,99.00
2019-04-16T18:23:03.276Z,98.50
2019-04-16T18:25:54.912Z,98.60
2019-04-16T18:28:30.116Z,98.60
2019-04-16T18:31:16.824Z,98.80
2019-04-16T18:34:05.152Z,98.50
2019-04-16T18:36:34.562Z,98.80
2019-04-16T18:39:37.221Z,98.30
2019-04-16T18:41:59.932Z,98.30
2019-04-16T18:44:38.361Z,98.30
2019-04-16T18:47:20.918Z,98.60
2019-04-16T18:49:53.560Z,98.70
2019-04-16T18:52:25.325Z,98.30
2019-04-16T18:54:54.192Z,98.50
2019-04-16T18:57:23.146Z,98.30
2019-04-16T18:59:52.490Z,98.20
2019-04-16T19:02:25.865Z,98.20
2019-04-16T19:04:54.692Z,98.50
2019-04-16T19:07:30.576Z,97.90
2019-04-16T19:09:59.021Z,98.00
2019-04-16T19:12:27.612Z,98.00
2019-04-16T19:14:56.737Z,98.10
2019-04-16T19:17:25.672Z,98.10
2019-04-16T19:19:54.481Z,98.30
2019-04-16T19:22:23.339Z,97.50
2019-04-16T19:24:52.406Z,97.80
2019-04-16T19:27:21.360Z,97.80
2019-04-16T19:29:50.112Z,97.60
2019-04-16T19:32:19.012Z,97.80
2019-04-16T19:34:47.888Z,97.30
2019-04-16T19:37:16.698Z,97.70
2019-04-16T19:39:46.649Z,97.70
2019-04-16T19:42:16.060Z,97.60
2019-04-16T19:44:44.763Z,97.40
2019-04-16T19:47:13.466Z,97.20
2019-04-16T19:49:42.354Z,97.40
2019-04-16T19:52:14.338Z,96.80
2019-04-16T19:54:45.095Z,97.00
2019-04-16T19:57:14.195Z,97.00
2019-04-16T19:59:46.336Z,97.40
2019-04-16T20:02:13.610Z,97.40
2019-04-16T20:04:44.534Z,96.90
2019-04-16T20:07:13.302Z,96.60
2019-04-16T20:09:42.048Z,96.60
2019-04-16T20:12:11.049Z,96.50
2019-04-16T20:14:39.833Z,96.20
2019-04-16T20:17:08.618Z,96.20
2019-04-16T20:19:40.425Z,95.90
2019-04-16T20:22:09.175Z,95.70
2019-04-16T20:24:38.103Z,95.20
2019-04-16T20:27:07.089Z,95.50
2019-04-16T20:29:35.927Z,95.30
2019-04-16T20:32:04.681Z,95.30
2019-04-16T20:34:33.575Z,95.20
2019-04-16T20:37:02.250Z,95.30
2019-04-16T20:39:30.985Z,95.30
2019-04-16T20:42:00.157Z,95.20
2019-04-16T20:44:29.179Z,94.90
2019-04-16T20:46:58.581Z,95.10
2019-04-16T20:49:28.274Z,94.60
2019-04-16T20:52:00.548Z,94.60
2019-04-16T20:54:27.354Z,94.40
2019-04-16T20:56:56.145Z,94.20
2019-04-16T20:59:25.023Z,93.60
2019-04-16T21:01:54.084Z,93.20
2019-04-16T21:04:22.971Z,93.00
2019-04-16T21:06:51.656Z,92.60
2019-04-16T21:09:20.432Z,92.40
2019-04-16T21:11:52.576Z,91.80
2019-04-16T21:14:21.808Z,91.70
2019-04-16T21:16:50.120Z,91.60
2019-04-16T21:19:23.279Z,91.30
2019-04-16T21:21:49.291Z,90.50
2019-04-16T21:24:18.069Z,90.50
2019-04-16T21:26:50.988Z,90.30
2019-04-16T21:29:25.870Z,89.80
2019-04-16T21:31:56.662Z,90.20
2019-04-16T21:34:30.177Z,88.80
2019-04-16T21:37:16.951Z,88.30
2019-04-16T21:39:51.131Z,88.50
2019-04-16T21:42:20.681Z,87.80
2019-04-16T21:44:49.408Z,87.90
2019-04-16T21:47:23.133Z,87.30
2019-04-16T21:49:48.671Z,87.20
2019-04-16T21:52:17.558Z,86.80
2019-04-16T21:54:46.205Z,88.40
2019-04-16T21:57:14.926Z,87.50
2019-04-16T21:59:43.918Z,86.60
2019-04-16T22:02:20.649Z,86.90
2019-04-16T22:04:49.391Z,86.30
2019-04-16T22:07:18.153Z,85.90
2019-04-16T22:09:47.075Z,86.30
2019-04-16T22:12:16.322Z,86.60
2019-04-16T22:14:45.236Z,86.80
2019-04-16T22:17:13.990Z,86.30
2019-04-16T22:19:54.017Z,86.70
2019-04-16T22:22:14.745Z,85.70
2019-04-16T22:24:43.719Z,85.70
2019-04-16T22:27:12.628Z,86.00
2019-04-16T22:29:41.304Z,86.50
2019-04-16T22:32:10.057Z,86.00
2019-04-16T22:34:38.877Z,86.00
2019-04-16T22:37:07.654Z,86.10
2019-04-16T22:39:43.966Z,86.10
2019-04-16T22:42:17.323Z,86.90
2019-04-16T22:44:47.682Z,87.00
2019-04-16T22:47:18.043Z,86.80
2019-04-16T22:49:46.655Z,86.70
2019-04-16T22:52:15.328Z,87.10
2019-04-16T22:54:44.253Z,86.90
2019-04-16T22:57:13.970Z,86.90
2019-04-16T22:59:42.713Z,86.80
2019-04-16T23:02:13.821Z,87.50
2019-04-16T23:04:44.106Z,87.10
2019-04-16T23:07:12.933Z,87.40
2019-04-16T23:09:41.838Z,86.80
2019-04-16T23:12:12.441Z,86.40
2019-04-16T23:14:48.193Z,87.10
2019-04-16T23:17:17.534Z,86.60
2019-04-16T23:19:51.727Z,87.40
2019-04-16T23:22:20.645Z,87.70
2019-04-16T23:24:51.808Z,87.30
2019-04-16T23:27:19.845Z,86.20
2019-04-16T23:29:48.538Z,87.10
2019-04-16T23:32:17.127Z,86.80
2019-04-16T23:34:45.912Z,86.30
2019-04-16T23:37:14.683Z,86.40
2019-04-16T23:39:43.665Z,86.10
2019-04-16T23:42:12.431Z,85.20
2019-04-16T23:44:42.881Z,85.30
2019-04-16T23:47:19.481Z,85.50
2019-04-16T23:49:49.891Z,85.50
2019-04-16T23:52:22.725Z,85.30
2019-04-16T23:54:59.289Z,84.80
2019-04-16T23:57:39.082Z,84.60
